Orbital elements of SL-8 R/B
| Launched | 10 April 1970 |
| Flight ended | – |
| Launch site | Plesetsk Missile and Space Complex, Russia |
| Owner | Commonwealth of Independent States (former USSR) |
| NORAD ID | 4370 |
| Date fetched |
Epoch osculation |
Inc. [°] |
Ecc. | RA asc node [hr] |
Arg Peri. [°] |
Mean anom [°] |
Mean motion [rev/day] |
Abs. mag |
| Date fetched |
Epoch osculation |
Inc. [°] |
Ecc. | RA asc node [hr] |
Arg Peri. [°] |
Mean anom [°] |
Mean motion [rev/day] |
Abs. mag |
| 2026 May 05 17:57 | 2026 May 05 10:31:02 | 74.0405 | 0.00147 | 0.8264 | 186.2724 | 173.8261 | 14.63358 | 5.243 |
| 2026 May 04 17:57 | 2026 Apr 30 10:44:34 | 74.0408 | 0.00150 | 1.4645 | 196.9299 | 173.8261 | 14.63358 | 5.243 |
| 2026 May 03 17:57 | 2026 Apr 30 10:44:34 | 74.0408 | 0.00150 | 1.4645 | 196.9299 | 173.8261 | 14.63358 | 5.243 |
| 2026 May 02 17:57 | 2026 Apr 30 10:44:34 | 74.0408 | 0.00150 | 1.4645 | 196.9299 | 173.8261 | 14.63358 | 5.243 |
| 2026 May 01 17:56 | 2026 Apr 30 10:44:34 | 74.0408 | 0.00150 | 1.4645 | 196.9299 | 173.8261 | 14.63358 | 5.243 |
| 2026 Apr 30 17:56 | 2026 Apr 30 10:44:34 | 74.0408 | 0.00150 | 1.4645 | 196.9299 | 173.8261 | 14.63358 | 5.243 |
| 2026 Apr 29 17:57 | 2026 Apr 24 05:26:04 | 74.0405 | 0.00152 | 2.2599 | 210.2808 | 173.8261 | 14.63358 | 5.243 |
| 2026 Apr 28 17:56 | 2026 Apr 24 05:26:04 | 74.0405 | 0.00152 | 2.2599 | 210.2808 | 173.8261 | 14.63358 | 5.243 |
| 2026 Apr 27 17:58 | 2026 Apr 24 05:26:04 | 74.0405 | 0.00152 | 2.2599 | 210.2808 | 173.8261 | 14.63358 | 5.243 |
| 2026 Apr 26 17:58 | 2026 Apr 24 05:26:04 | 74.0405 | 0.00152 | 2.2599 | 210.2808 | 173.8261 | 14.63358 | 5.243 |
| 2026 Apr 25 17:58 | 2026 Apr 24 05:26:04 | 74.0405 | 0.00152 | 2.2599 | 210.2808 | 173.8261 | 14.63358 | 5.243 |
| 2026 Apr 24 17:59 | 2026 Apr 24 05:26:04 | 74.0405 | 0.00152 | 2.2599 | 210.2808 | 173.8261 | 14.63358 | 5.243 |
| 2026 Apr 23 17:57 | 2026 Apr 19 12:13:19 | 74.0401 | 0.00154 | 2.8630 | 220.1803 | 173.8261 | 14.63358 | 5.243 |
| 2026 Apr 22 17:57 | 2026 Apr 19 12:13:19 | 74.0401 | 0.00154 | 2.8630 | 220.1803 | 173.8261 | 14.63358 | 5.243 |
| 2026 Apr 21 17:57 | 2026 Apr 19 12:13:19 | 74.0401 | 0.00154 | 2.8630 | 220.1803 | 173.8261 | 14.63358 | 5.243 |
| 2026 Apr 20 17:57 | 2026 Apr 19 12:13:19 | 74.0401 | 0.00154 | 2.8630 | 220.1803 | 173.8261 | 14.63358 | 5.243 |
| 2026 Apr 19 17:58 | 2026 Apr 19 12:13:19 | 74.0401 | 0.00154 | 2.8630 | 220.1803 | 173.8261 | 14.63358 | 5.243 |
| 2026 Apr 18 17:56 | 2026 Apr 13 06:54:46 | 74.0390 | 0.00157 | 3.6585 | 233.0749 | 173.8261 | 14.63358 | 5.243 |
| 2026 Apr 16 17:57 | 2026 Apr 13 06:54:46 | 74.0390 | 0.00157 | 3.6585 | 233.0749 | 173.8261 | 14.63358 | 5.243 |
| 2026 Apr 14 17:57 | 2026 Apr 13 06:54:46 | 74.0390 | 0.00157 | 3.6585 | 233.0749 | 173.8261 | 14.63358 | 5.243 |
| 2026 Apr 13 17:57 | 2026 Apr 13 06:54:46 | 74.0390 | 0.00157 | 3.6585 | 233.0749 | 173.8261 | 14.63358 | 5.243 |
| 2026 Apr 12 17:57 | 2026 Apr 08 15:20:26 | 74.0384 | 0.00159 | 4.2529 | 242.5840 | 173.8261 | 14.63358 | 5.243 |
| 2026 Apr 11 17:57 | 2026 Apr 08 15:20:26 | 74.0384 | 0.00159 | 4.2529 | 242.5840 | 173.8261 | 14.63358 | 5.243 |
| 2026 Apr 10 17:58 | 2026 Apr 08 15:20:26 | 74.0384 | 0.00159 | 4.2529 | 242.5840 | 173.8261 | 14.63358 | 5.243 |
| 2026 Apr 09 18:01 | 2026 Apr 08 15:20:26 | 74.0384 | 0.00159 | 4.2529 | 242.5840 | 173.8261 | 14.63358 | 5.243 |
| 2026 Apr 08 17:57 | 2026 Apr 08 15:20:26 | 74.0384 | 0.00159 | 4.2529 | 242.5840 | 173.8261 | 14.63358 | 5.243 |